sensor_id;sensor_type;location;lat;lon;timestamp;P1;durP1;ratioP1;P2;durP2;ratioP2
61204;SDS011;47068;55.780;37.520;2024-03-02T00:04:36;1225.73;;;277.67;;
61204;SDS011;47068;55.780;37.520;2024-03-02T00:09:27;1231.63;;;284.97;;
61204;SDS011;47068;55.780;37.520;2024-03-02T00:14:19;1257.07;;;287.13;;
61204;SDS011;47068;55.780;37.520;2024-03-02T00:16:45;1243.07;;;271.60;;
61204;SDS011;47068;55.780;37.520;2024-03-02T00:19:10;1237.57;;;298.85;;
61204;SDS011;47068;55.780;37.520;2024-03-02T00:21:36;1217.97;;;277.50;;
61204;SDS011;47068;55.780;37.520;2024-03-02T00:24:06;1251.38;;;298.38;;
61204;SDS011;47068;55.780;37.520;2024-03-02T00:26:57;1259.68;;;279.83;;
61204;SDS011;47068;55.780;37.520;2024-03-02T00:29:22;1288.80;;;297.75;;
61204;SDS011;47068;55.780;37.520;2024-03-02T00:31:47;1280.45;;;295.13;;
61204;SDS011;47068;55.780;37.520;2024-03-02T00:34:13;1309.18;;;292.90;;
61204;SDS011;47068;55.780;37.520;2024-03-02T00:36:41;1268.07;;;276.38;;
61204;SDS011;47068;55.780;37.520;2024-03-02T00:39:07;1279.30;;;289.77;;
61204;SDS011;47068;55.780;37.520;2024-03-02T00:41:33;1270.57;;;289.67;;
61204;SDS011;47068;55.780;37.520;2024-03-02T00:43:59;1280.68;;;284.73;;
61204;SDS011;47068;55.780;37.520;2024-03-02T00:46:27;1285.65;;;297.25;;
61204;SDS011;47068;55.780;37.520;2024-03-02T00:48:59;1280.87;;;283.83;;
61204;SDS011;47068;55.780;37.520;2024-03-02T00:51:29;1269.95;;;285.73;;
61204;SDS011;47068;55.780;37.520;2024-03-02T00:53:58;1284.87;;;297.43;;
61204;SDS011;47068;55.780;37.520;2024-03-02T00:56:25;1298.20;;;296.80;;
61204;SDS011;47068;55.780;37.520;2024-03-02T00:58:51;1280.88;;;279.08;;
61204;SDS011;47068;55.780;37.520;2024-03-02T01:01:17;1287.03;;;276.63;;
61204;SDS011;47068;55.780;37.520;2024-03-02T01:03:43;1312.65;;;293.00;;
61204;SDS011;47068;55.780;37.520;2024-03-02T01:06:09;1304.97;;;278.13;;
61204;SDS011;47068;55.780;37.520;2024-03-02T01:08:35;1291.68;;;289.35;;
61204;SDS011;47068;55.780;37.520;2024-03-02T01:11:00;1275.65;;;285.48;;
61204;SDS011;47068;55.780;37.520;2024-03-02T01:13:26;1278.13;;;291.98;;
61204;SDS011;47068;55.780;37.520;2024-03-02T01:15:52;1304.72;;;298.33;;
61204;SDS011;47068;55.780;37.520;2024-03-02T01:18:18;1260.60;;;287.75;;
61204;SDS011;47068;55.780;37.520;2024-03-02T01:20:43;1269.65;;;282.63;;
61204;SDS011;47068;55.780;37.520;2024-03-02T01:23:09;1279.15;;;292.30;;
61204;SDS011;47068;55.780;37.520;2024-03-02T01:25:34;1268.05;;;293.27;;
61204;SDS011;47068;55.780;37.520;2024-03-02T01:28:01;1276.10;;;293.98;;
61204;SDS011;47068;55.780;37.520;2024-03-02T01:30:26;1260.57;;;276.50;;
61204;SDS011;47068;55.780;37.520;2024-03-02T01:32:52;1277.20;;;292.85;;
61204;SDS011;47068;55.780;37.520;2024-03-02T01:35:17;1263.82;;;279.17;;
61204;SDS011;47068;55.780;37.520;2024-03-02T01:37:43;1242.35;;;278.52;;
61204;SDS011;47068;55.780;37.520;2024-03-02T01:40:08;1269.35;;;276.98;;
61204;SDS011;47068;55.780;37.520;2024-03-02T01:45:02;1268.93;;;287.13;;
61204;SDS011;47068;55.780;37.520;2024-03-02T01:47:28;1247.20;;;272.13;;
61204;SDS011;47068;55.780;37.520;2024-03-02T01:49:54;1261.10;;;287.15;;
61204;SDS011;47068;55.780;37.520;2024-03-02T01:52:19;1257.57;;;283.85;;
61204;SDS011;47068;55.780;37.520;2024-03-02T01:54:45;1275.47;;;296.17;;
61204;SDS011;47068;55.780;37.520;2024-03-02T01:57:10;1244.50;;;270.33;;
61204;SDS011;47068;55.780;37.520;2024-03-02T01:59:36;1271.60;;;276.40;;
61204;SDS011;47068;55.780;37.520;2024-03-02T02:02:01;979.78;;;251.85;;
61204;SDS011;47068;55.780;37.520;2024-03-02T02:04:27;1276.35;;;288.20;;
61204;SDS011;47068;55.780;37.520;2024-03-02T02:06:53;1244.53;;;269.77;;
61204;SDS011;47068;55.780;37.520;2024-03-02T02:11:44;1257.53;;;293.37;;
61204;SDS011;47068;55.780;37.520;2024-03-02T02:14:10;1252.18;;;289.85;;
61204;SDS011;47068;55.780;37.520;2024-03-02T02:16:36;1248.18;;;287.92;;
61204;SDS011;47068;55.780;37.520;2024-03-02T02:19:02;1271.07;;;291.05;;
61204;SDS011;47068;55.780;37.520;2024-03-02T02:21:28;1239.82;;;288.50;;
61204;SDS011;47068;55.780;37.520;2024-03-02T02:23:53;1272.55;;;269.70;;
61204;SDS011;47068;55.780;37.520;2024-03-02T02:26:19;1255.25;;;290.58;;
61204;SDS011;47068;55.780;37.520;2024-03-02T02:28:44;1240.15;;;268.85;;
61204;SDS011;47068;55.780;37.520;2024-03-02T02:31:12;1264.10;;;283.38;;
61204;SDS011;47068;55.780;37.520;2024-03-02T02:33:41;1289.30;;;290.67;;
61204;SDS011;47068;55.780;37.520;2024-03-02T02:36:07;1286.53;;;288.17;;
61204;SDS011;47068;55.780;37.520;2024-03-02T02:38:32;1267.20;;;278.05;;
61204;SDS011;47068;55.780;37.520;2024-03-02T02:41:01;1261.32;;;279.98;;
61204;SDS011;47068;55.780;37.520;2024-03-02T02:43:27;1269.25;;;284.90;;
61204;SDS011;47068;55.780;37.520;2024-03-02T02:45:52;1249.68;;;274.83;;
61204;SDS011;47068;55.780;37.520;2024-03-02T02:48:18;1273.82;;;296.38;;
61204;SDS011;47068;55.780;37.520;2024-03-02T02:50:43;1290.25;;;299.00;;
61204;SDS011;47068;55.780;37.520;2024-03-02T02:53:09;1263.65;;;291.75;;
61204;SDS011;47068;55.780;37.520;2024-03-02T02:55:35;1261.55;;;294.42;;
61204;SDS011;47068;55.780;37.520;2024-03-02T02:58:05;1261.45;;;297.58;;
61204;SDS011;47068;55.780;37.520;2024-03-02T03:00:33;1236.95;;;272.20;;
61204;SDS011;47068;55.780;37.520;2024-03-02T03:02:59;1233.00;;;282.30;;
61204;SDS011;47068;55.780;37.520;2024-03-02T03:05:24;1217.30;;;270.50;;
61204;SDS011;47068;55.780;37.520;2024-03-02T03:07:49;1241.85;;;273.65;;
61204;SDS011;47068;55.780;37.520;2024-03-02T03:10:15;1240.47;;;291.10;;
61204;SDS011;47068;55.780;37.520;2024-03-02T03:15:08;1233.78;;;276.65;;
61204;SDS011;47068;55.780;37.520;2024-03-02T03:17:35;1245.00;;;283.45;;
61204;SDS011;47068;55.780;37.520;2024-03-02T03:20:02;1254.68;;;279.70;;
61204;SDS011;47068;55.780;37.520;2024-03-02T03:22:29;1221.93;;;273.92;;
61204;SDS011;47068;55.780;37.520;2024-03-02T03:24:55;1229.57;;;272.95;;
61204;SDS011;47068;55.780;37.520;2024-03-02T03:27:20;1219.88;;;274.23;;
61204;SDS011;47068;55.780;37.520;2024-03-02T03:29:46;1244.80;;;304.83;;
61204;SDS011;47068;55.780;37.520;2024-03-02T03:32:12;1242.72;;;278.48;;
61204;SDS011;47068;55.780;37.520;2024-03-02T03:34:37;1252.07;;;280.38;;
61204;SDS011;47068;55.780;37.520;2024-03-02T03:37:03;1272.32;;;292.25;;
61204;SDS011;47068;55.780;37.520;2024-03-02T03:39:28;1228.05;;;280.83;;
61204;SDS011;47068;55.780;37.520;2024-03-02T03:41:54;1257.45;;;287.58;;
61204;SDS011;47068;55.780;37.520;2024-03-02T03:44:19;1224.57;;;268.95;;
61204;SDS011;47068;55.780;37.520;2024-03-02T03:46:45;1222.03;;;272.70;;
61204;SDS011;47068;55.780;37.520;2024-03-02T03:49:10;1245.38;;;275.13;;
61204;SDS011;47068;55.780;37.520;2024-03-02T03:51:36;1232.43;;;273.75;;
61204;SDS011;47068;55.780;37.520;2024-03-02T03:54:01;1246.78;;;283.48;;
61204;SDS011;47068;55.780;37.520;2024-03-02T03:56:27;1241.57;;;290.25;;
61204;SDS011;47068;55.780;37.520;2024-03-02T03:58:52;1253.88;;;285.88;;
61204;SDS011;47068;55.780;37.520;2024-03-02T04:01:18;1276.40;;;293.20;;
61204;SDS011;47068;55.780;37.520;2024-03-02T04:03:43;1265.10;;;274.67;;
61204;SDS011;47068;55.780;37.520;2024-03-02T04:06:09;1233.00;;;274.67;;
61204;SDS011;47068;55.780;37.520;2024-03-02T04:08:34;1226.35;;;269.15;;
61204;SDS011;47068;55.780;37.520;2024-03-02T04:11:00;1247.70;;;291.30;;
61204;SDS011;47068;55.780;37.520;2024-03-02T04:13:25;1234.75;;;270.17;;
61204;SDS011;47068;55.780;37.520;2024-03-02T04:15:51;1241.50;;;292.98;;
61204;SDS011;47068;55.780;37.520;2024-03-02T04:18:16;1236.53;;;287.30;;
61204;SDS011;47068;55.780;37.520;2024-03-02T04:20:41;1234.77;;;276.73;;
61204;SDS011;47068;55.780;37.520;2024-03-02T04:23:07;1244.60;;;280.40;;
61204;SDS011;47068;55.780;37.520;2024-03-02T04:25:33;1238.93;;;273.85;;
61204;SDS011;47068;55.780;37.520;2024-03-02T04:27:58;1234.00;;;271.83;;
61204;SDS011;47068;55.780;37.520;2024-03-02T04:30:24;1225.30;;;270.73;;
61204;SDS011;47068;55.780;37.520;2024-03-02T04:32:50;1258.28;;;292.48;;
61204;SDS011;47068;55.780;37.520;2024-03-02T04:35:16;1272.88;;;293.42;;
61204;SDS011;47068;55.780;37.520;2024-03-02T04:37:41;1238.57;;;268.60;;
61204;SDS011;47068;55.780;37.520;2024-03-02T04:40:07;1213.38;;;272.00;;
61204;SDS011;47068;55.780;37.520;2024-03-02T04:42:35;1220.70;;;287.58;;
61204;SDS011;47068;55.780;37.520;2024-03-02T04:45:01;1237.72;;;277.55;;
61204;SDS011;47068;55.780;37.520;2024-03-02T04:47:27;1221.30;;;287.70;;
61204;SDS011;47068;55.780;37.520;2024-03-02T04:49:52;1200.07;;;270.85;;
61204;SDS011;47068;55.780;37.520;2024-03-02T04:52:18;1217.50;;;294.25;;
61204;SDS011;47068;55.780;37.520;2024-03-02T04:54:43;1229.60;;;287.80;;
61204;SDS011;47068;55.780;37.520;2024-03-02T04:57:27;1211.18;;;274.65;;
61204;SDS011;47068;55.780;37.520;2024-03-02T04:59:53;1234.38;;;271.48;;
61204;SDS011;47068;55.780;37.520;2024-03-02T05:02:18;1213.90;;;272.27;;
61204;SDS011;47068;55.780;37.520;2024-03-02T05:04:44;1215.60;;;273.13;;
61204;SDS011;47068;55.780;37.520;2024-03-02T05:07:09;1216.65;;;280.70;;
61204;SDS011;47068;55.780;37.520;2024-03-02T05:09:35;1232.97;;;293.77;;
61204;SDS011;47068;55.780;37.520;2024-03-02T05:12:00;1214.97;;;289.33;;
61204;SDS011;47068;55.780;37.520;2024-03-02T05:14:45;1213.07;;;287.08;;
61204;SDS011;47068;55.780;37.520;2024-03-02T05:17:11;1214.18;;;291.13;;
61204;SDS011;47068;55.780;37.520;2024-03-02T05:19:36;1202.60;;;276.77;;
61204;SDS011;47068;55.780;37.520;2024-03-02T05:22:02;1199.30;;;275.45;;
61204;SDS011;47068;55.780;37.520;2024-03-02T05:24:28;1239.65;;;291.48;;
61204;SDS011;47068;55.780;37.520;2024-03-02T05:26:53;1245.30;;;296.67;;
61204;SDS011;47068;55.780;37.520;2024-03-02T05:29:19;1240.97;;;296.25;;
61204;SDS011;47068;55.780;37.520;2024-03-02T05:31:45;1224.32;;;280.85;;
61204;SDS011;47068;55.780;37.520;2024-03-02T05:34:11;1229.78;;;278.48;;
61204;SDS011;47068;55.780;37.520;2024-03-02T05:36:36;1204.68;;;290.55;;
61204;SDS011;47068;55.780;37.520;2024-03-02T05:39:04;1237.15;;;284.85;;
61204;SDS011;47068;55.780;37.520;2024-03-02T05:41:31;1266.68;;;296.52;;
61204;SDS011;47068;55.780;37.520;2024-03-02T05:43:57;1232.28;;;275.67;;
61204;SDS011;47068;55.780;37.520;2024-03-02T05:46:22;1235.97;;;292.13;;
61204;SDS011;47068;55.780;37.520;2024-03-02T05:48:47;1252.68;;;283.67;;
61204;SDS011;47068;55.780;37.520;2024-03-02T05:51:13;1254.07;;;281.48;;
61204;SDS011;47068;55.780;37.520;2024-03-02T05:53:39;808.83;;;236.48;;
61204;SDS011;47068;55.780;37.520;2024-03-02T05:56:06;826.83;;;246.47;;
61204;SDS011;47068;55.780;37.520;2024-03-02T05:58:32;821.78;;;245.15;;
61204;SDS011;47068;55.780;37.520;2024-03-02T06:01:16;750.53;;;234.90;;
61204;SDS011;47068;55.780;37.520;2024-03-02T06:03:43;751.70;;;236.93;;
61204;SDS011;47068;55.780;37.520;2024-03-02T06:06:09;770.67;;;248.80;;
61204;SDS011;47068;55.780;37.520;2024-03-02T06:08:34;753.60;;;251.13;;
61204;SDS011;47068;55.780;37.520;2024-03-02T06:11:00;740.83;;;233.43;;
61204;SDS011;47068;55.780;37.520;2024-03-02T06:13:25;759.30;;;244.63;;
61204;SDS011;47068;55.780;37.520;2024-03-02T06:15:51;735.33;;;233.82;;
61204;SDS011;47068;55.780;37.520;2024-03-02T06:18:17;747.60;;;243.40;;
61204;SDS011;47068;55.780;37.520;2024-03-02T06:20:43;758.88;;;246.48;;
61204;SDS011;47068;55.780;37.520;2024-03-02T06:23:08;755.57;;;237.83;;
61204;SDS011;47068;55.780;37.520;2024-03-02T06:25:34;764.45;;;240.15;;
61204;SDS011;47068;55.780;37.520;2024-03-02T06:27:59;760.47;;;244.50;;
61204;SDS011;47068;55.780;37.520;2024-03-02T06:30:25;755.28;;;241.15;;
61204;SDS011;47068;55.780;37.520;2024-03-02T06:32:51;753.25;;;240.20;;
61204;SDS011;47068;55.780;37.520;2024-03-02T06:35:16;748.37;;;234.73;;
61204;SDS011;47068;55.780;37.520;2024-03-02T06:37:42;738.97;;;238.17;;
61204;SDS011;47068;55.780;37.520;2024-03-02T06:40:07;785.97;;;248.30;;
61204;SDS011;47068;55.780;37.520;2024-03-02T06:42:34;804.65;;;248.05;;
61204;SDS011;47068;55.780;37.520;2024-03-02T06:45:00;815.63;;;255.32;;
61204;SDS011;47068;55.780;37.520;2024-03-02T06:47:25;816.70;;;250.35;;
61204;SDS011;47068;55.780;37.520;2024-03-02T06:49:51;805.57;;;251.20;;
61204;SDS011;47068;55.780;37.520;2024-03-02T06:52:16;812.08;;;255.95;;
61204;SDS011;47068;55.780;37.520;2024-03-02T06:54:42;804.75;;;253.95;;
61204;SDS011;47068;55.780;37.520;2024-03-02T06:57:07;806.75;;;255.57;;
61204;SDS011;47068;55.780;37.520;2024-03-02T06:59:33;814.67;;;264.37;;
61204;SDS011;47068;55.780;37.520;2024-03-02T07:01:58;811.20;;;263.13;;
61204;SDS011;47068;55.780;37.520;2024-03-02T07:04:25;823.90;;;262.67;;
61204;SDS011;47068;55.780;37.520;2024-03-02T07:06:51;841.22;;;276.40;;
61204;SDS011;47068;55.780;37.520;2024-03-02T07:09:17;826.55;;;259.10;;
61204;SDS011;47068;55.780;37.520;2024-03-02T07:11:42;832.35;;;267.67;;
61204;SDS011;47068;55.780;37.520;2024-03-02T07:14:08;813.60;;;263.30;;
61204;SDS011;47068;55.780;37.520;2024-03-02T07:16:33;818.38;;;262.63;;
61204;SDS011;47068;55.780;37.520;2024-03-02T07:18:59;811.25;;;255.30;;
61204;SDS011;47068;55.780;37.520;2024-03-02T07:21:26;827.30;;;257.60;;
61204;SDS011;47068;55.780;37.520;2024-03-02T07:23:53;829.50;;;258.10;;
61204;SDS011;47068;55.780;37.520;2024-03-02T07:26:18;812.50;;;248.82;;
61204;SDS011;47068;55.780;37.520;2024-03-02T07:28:47;821.67;;;252.50;;
61204;SDS011;47068;55.780;37.520;2024-03-02T07:31:14;820.50;;;250.60;;
61204;SDS011;47068;55.780;37.520;2024-03-02T07:33:40;823.60;;;247.82;;
61204;SDS011;47068;55.780;37.520;2024-03-02T07:36:06;822.55;;;255.38;;
61204;SDS011;47068;55.780;37.520;2024-03-02T07:38:32;822.17;;;246.05;;
61204;SDS011;47068;55.780;37.520;2024-03-02T07:41:00;813.07;;;250.83;;
61204;SDS011;47068;55.780;37.520;2024-03-02T07:43:25;820.72;;;248.02;;
61204;SDS011;47068;55.780;37.520;2024-03-02T07:45:51;806.28;;;244.50;;
61204;SDS011;47068;55.780;37.520;2024-03-02T07:48:17;806.47;;;254.95;;
61204;SDS011;47068;55.780;37.520;2024-03-02T07:50:43;804.33;;;255.33;;
61204;SDS011;47068;55.780;37.520;2024-03-02T07:53:08;822.03;;;258.85;;
61204;SDS011;47068;55.780;37.520;2024-03-02T07:55:34;808.50;;;250.73;;
61204;SDS011;47068;55.780;37.520;2024-03-02T07:58:00;803.33;;;257.15;;
61204;SDS011;47068;55.780;37.520;2024-03-02T08:02:52;809.50;;;252.87;;
61204;SDS011;47068;55.780;37.520;2024-03-02T08:05:18;819.80;;;257.20;;
61204;SDS011;47068;55.780;37.520;2024-03-02T08:10:11;812.57;;;252.77;;
61204;SDS011;47068;55.780;37.520;2024-03-02T08:12:36;819.13;;;261.25;;
61204;SDS011;47068;55.780;37.520;2024-03-02T08:15:02;818.55;;;259.40;;
61204;SDS011;47068;55.780;37.520;2024-03-02T08:17:27;825.10;;;257.23;;
61204;SDS011;47068;55.780;37.520;2024-03-02T08:19:53;842.38;;;264.83;;
61204;SDS011;47068;55.780;37.520;2024-03-02T08:22:19;825.42;;;257.05;;
61204;SDS011;47068;55.780;37.520;2024-03-02T08:24:44;834.90;;;254.02;;
61204;SDS011;47068;55.780;37.520;2024-03-02T08:27:10;821.00;;;250.25;;
61204;SDS011;47068;55.780;37.520;2024-03-02T08:29:36;824.30;;;255.95;;
61204;SDS011;47068;55.780;37.520;2024-03-02T08:32:01;825.40;;;252.93;;
61204;SDS011;47068;55.780;37.520;2024-03-02T08:34:27;821.35;;;254.40;;
61204;SDS011;47068;55.780;37.520;2024-03-02T08:36:53;823.38;;;259.17;;
61204;SDS011;47068;55.780;37.520;2024-03-02T08:39:18;811.90;;;253.85;;
61204;SDS011;47068;55.780;37.520;2024-03-02T08:41:45;804.88;;;255.55;;
61204;SDS011;47068;55.780;37.520;2024-03-02T08:44:11;812.60;;;248.57;;
61204;SDS011;47068;55.780;37.520;2024-03-02T08:46:37;818.50;;;257.80;;
61204;SDS011;47068;55.780;37.520;2024-03-02T08:49:04;817.47;;;262.20;;
61204;SDS011;47068;55.780;37.520;2024-03-02T08:51:30;799.60;;;259.70;;
61204;SDS011;47068;55.780;37.520;2024-03-02T08:53:55;804.35;;;268.90;;
61204;SDS011;47068;55.780;37.520;2024-03-02T08:56:21;809.22;;;270.15;;
61204;SDS011;47068;55.780;37.520;2024-03-02T08:58:48;841.57;;;281.73;;
61204;SDS011;47068;55.780;37.520;2024-03-02T09:01:14;838.10;;;286.38;;
61204;SDS011;47068;55.780;37.520;2024-03-02T09:03:41;842.65;;;291.83;;
61204;SDS011;47068;55.780;37.520;2024-03-02T09:06:09;840.23;;;298.13;;
61204;SDS011;47068;55.780;37.520;2024-03-02T09:08:35;844.38;;;287.38;;
61204;SDS011;47068;55.780;37.520;2024-03-02T09:11:01;856.08;;;294.00;;
61204;SDS011;47068;55.780;37.520;2024-03-02T09:13:30;852.00;;;291.40;;
61204;SDS011;47068;55.780;37.520;2024-03-02T09:15:57;845.33;;;278.60;;
61204;SDS011;47068;55.780;37.520;2024-03-02T09:18:22;846.05;;;280.65;;
61204;SDS011;47068;55.780;37.520;2024-03-02T09:20:48;853.13;;;284.10;;
61204;SDS011;47068;55.780;37.520;2024-03-02T09:23:13;852.90;;;282.13;;
61204;SDS011;47068;55.780;37.520;2024-03-02T09:25:39;854.72;;;294.15;;
61204;SDS011;47068;55.780;37.520;2024-03-02T09:28:05;847.45;;;281.05;;
61204;SDS011;47068;55.780;37.520;2024-03-02T09:30:30;845.65;;;286.13;;
61204;SDS011;47068;55.780;37.520;2024-03-02T09:32:56;851.03;;;287.23;;
61204;SDS011;47068;55.780;37.520;2024-03-02T09:35:21;823.50;;;278.50;;
61204;SDS011;47068;55.780;37.520;2024-03-02T09:37:47;836.85;;;276.50;;
61204;SDS011;47068;55.780;37.520;2024-03-02T09:40:13;846.33;;;282.97;;
61204;SDS011;47068;55.780;37.520;2024-03-02T09:42:39;848.92;;;290.05;;
61204;SDS011;47068;55.780;37.520;2024-03-02T09:45:06;870.77;;;284.93;;
61204;SDS011;47068;55.780;37.520;2024-03-02T09:47:32;866.55;;;280.48;;
61204;SDS011;47068;55.780;37.520;2024-03-02T09:49:57;849.90;;;274.65;;
61204;SDS011;47068;55.780;37.520;2024-03-02T09:52:23;847.10;;;272.58;;
61204;SDS011;47068;55.780;37.520;2024-03-02T09:54:49;841.30;;;267.77;;
61204;SDS011;47068;55.780;37.520;2024-03-02T09:57:15;845.20;;;270.58;;
61204;SDS011;47068;55.780;37.520;2024-03-02T09:59:40;842.67;;;271.23;;
61204;SDS011;47068;55.780;37.520;2024-03-02T10:02:06;851.67;;;269.65;;
61204;SDS011;47068;55.780;37.520;2024-03-02T10:04:32;848.00;;;268.73;;
61204;SDS011;47068;55.780;37.520;2024-03-02T10:09:46;844.23;;;270.87;;
61204;SDS011;47068;55.780;37.520;2024-03-02T10:12:14;840.50;;;274.80;;
61204;SDS011;47068;55.780;37.520;2024-03-02T10:14:42;856.23;;;278.50;;
61204;SDS011;47068;55.780;37.520;2024-03-02T10:19:34;840.97;;;263.30;;
61204;SDS011;47068;55.780;37.520;2024-03-02T10:22:02;854.60;;;273.53;;
61204;SDS011;47068;55.780;37.520;2024-03-02T10:24:48;875.47;;;279.23;;
61204;SDS011;47068;55.780;37.520;2024-03-02T10:27:18;864.20;;;276.73;;
61204;SDS011;47068;55.780;37.520;2024-03-02T10:29:54;852.80;;;269.60;;
61204;SDS011;47068;55.780;37.520;2024-03-02T10:32:21;866.30;;;280.58;;
61204;SDS011;47068;55.780;37.520;2024-03-02T10:34:48;833.47;;;269.03;;
61204;SDS011;47068;55.780;37.520;2024-03-02T10:37:15;911.17;;;271.40;;
61204;SDS011;47068;55.780;37.520;2024-03-02T10:39:42;897.90;;;276.03;;
61204;SDS011;47068;55.780;37.520;2024-03-02T10:42:08;895.63;;;267.83;;
61204;SDS011;47068;55.780;37.520;2024-03-02T10:47:03;902.37;;;272.30;;
61204;SDS011;47068;55.780;37.520;2024-03-02T10:49:30;900.03;;;260.97;;
61204;SDS011;47068;55.780;37.520;2024-03-02T10:51:58;892.40;;;268.70;;
61204;SDS011;47068;55.780;37.520;2024-03-02T10:54:26;892.53;;;270.47;;
61204;SDS011;47068;55.780;37.520;2024-03-02T10:56:55;892.97;;;274.93;;
61204;SDS011;47068;55.780;37.520;2024-03-02T10:59:28;901.43;;;262.10;;
61204;SDS011;47068;55.780;37.520;2024-03-02T11:02:01;902.37;;;266.87;;
61204;SDS011;47068;55.780;37.520;2024-03-02T11:04:29;901.40;;;265.70;;
61204;SDS011;47068;55.780;37.520;2024-03-02T11:06:59;889.47;;;269.57;;
61204;SDS011;47068;55.780;37.520;2024-03-02T11:09:37;884.63;;;273.37;;
61204;SDS011;47068;55.780;37.520;2024-03-02T11:12:15;881.57;;;277.13;;
61204;SDS011;47068;55.780;37.520;2024-03-02T11:14:53;891.83;;;275.03;;
61204;SDS011;47068;55.780;37.520;2024-03-02T11:17:20;884.57;;;274.90;;
61204;SDS011;47068;55.780;37.520;2024-03-02T11:19:47;900.13;;;275.73;;
61204;SDS011;47068;55.780;37.520;2024-03-02T11:22:13;898.22;;;276.83;;
61204;SDS011;47068;55.780;37.520;2024-03-02T11:24:47;880.73;;;284.77;;
61204;SDS011;47068;55.780;37.520;2024-03-02T11:27:14;888.97;;;275.23;;
61204;SDS011;47068;55.780;37.520;2024-03-02T11:32:13;885.40;;;271.65;;
61204;SDS011;47068;55.780;37.520;2024-03-02T11:34:45;881.37;;;284.70;;
61204;SDS011;47068;55.780;37.520;2024-03-02T11:37:12;902.90;;;285.37;;
61204;SDS011;47068;55.780;37.520;2024-03-02T11:39:40;902.73;;;279.17;;
61204;SDS011;47068;55.780;37.520;2024-03-02T11:42:08;908.08;;;292.00;;
61204;SDS011;47068;55.780;37.520;2024-03-02T11:44:38;901.00;;;289.13;;
61204;SDS011;47068;55.780;37.520;2024-03-02T11:47:06;899.93;;;284.63;;
61204;SDS011;47068;55.780;37.520;2024-03-02T11:49:37;892.20;;;280.53;;
61204;SDS011;47068;55.780;37.520;2024-03-02T11:52:08;905.63;;;278.53;;
61204;SDS011;47068;55.780;37.520;2024-03-02T11:54:41;896.05;;;276.35;;
61204;SDS011;47068;55.780;37.520;2024-03-02T11:57:17;896.17;;;283.10;;
61204;SDS011;47068;55.780;37.520;2024-03-02T11:59:45;893.13;;;277.23;;
61204;SDS011;47068;55.780;37.520;2024-03-02T12:02:14;887.53;;;270.17;;
61204;SDS011;47068;55.780;37.520;2024-03-02T12:04:47;876.22;;;274.80;;
61204;SDS011;47068;55.780;37.520;2024-03-02T12:07:23;878.07;;;272.87;;
61204;SDS011;47068;55.780;37.520;2024-03-02T12:09:49;890.63;;;279.50;;
61204;SDS011;47068;55.780;37.520;2024-03-02T12:12:25;877.70;;;279.17;;
61204;SDS011;47068;55.780;37.520;2024-03-02T12:14:52;859.70;;;275.92;;
61204;SDS011;47068;55.780;37.520;2024-03-02T12:17:20;892.10;;;282.87;;
61204;SDS011;47068;55.780;37.520;2024-03-02T12:19:47;1318.00;;;296.97;;
61204;SDS011;47068;55.780;37.520;2024-03-02T12:22:13;1315.90;;;299.65;;
61204;SDS011;47068;55.780;37.520;2024-03-02T12:24:39;1332.55;;;308.08;;
61204;SDS011;47068;55.780;37.520;2024-03-02T12:27:06;1296.40;;;288.30;;
61204;SDS011;47068;55.780;37.520;2024-03-02T12:29:32;983.85;;;278.85;;
61204;SDS011;47068;55.780;37.520;2024-03-02T12:31:58;1298.40;;;316.92;;
61204;SDS011;47068;55.780;37.520;2024-03-02T12:34:24;1302.03;;;326.17;;
61204;SDS011;47068;55.780;37.520;2024-03-02T12:36:51;1289.23;;;310.40;;
61204;SDS011;47068;55.780;37.520;2024-03-02T12:39:21;1297.23;;;316.53;;
61204;SDS011;47068;55.780;37.520;2024-03-02T12:41:48;1306.40;;;310.73;;
61204;SDS011;47068;55.780;37.520;2024-03-02T12:44:15;1298.13;;;317.30;;
61204;SDS011;47068;55.780;37.520;2024-03-02T12:46:41;1334.90;;;329.52;;
61204;SDS011;47068;55.780;37.520;2024-03-02T12:49:08;1331.20;;;318.58;;
61204;SDS011;47068;55.780;37.520;2024-03-02T12:51:38;1324.50;;;306.33;;
61204;SDS011;47068;55.780;37.520;2024-03-02T12:54:06;1308.63;;;307.63;;
61204;SDS011;47068;55.780;37.520;2024-03-02T12:56:32;1315.27;;;307.17;;
61204;SDS011;47068;55.780;37.520;2024-03-02T12:58:58;1319.63;;;314.45;;
61204;SDS011;47068;55.780;37.520;2024-03-02T13:01:24;1290.90;;;288.15;;
61204;SDS011;47068;55.780;37.520;2024-03-02T13:03:52;1299.88;;;296.08;;
61204;SDS011;47068;55.780;37.520;2024-03-02T13:06:18;1319.60;;;301.83;;
61204;SDS011;47068;55.780;37.520;2024-03-02T13:08:45;1313.03;;;290.33;;
61204;SDS011;47068;55.780;37.520;2024-03-02T13:11:11;1310.27;;;301.17;;
61204;SDS011;47068;55.780;37.520;2024-03-02T13:16:07;1303.10;;;288.67;;
61204;SDS011;47068;55.780;37.520;2024-03-02T13:18:36;1308.55;;;299.38;;
61204;SDS011;47068;55.780;37.520;2024-03-02T13:21:03;1294.28;;;279.40;;
61204;SDS011;47068;55.780;37.520;2024-03-02T13:23:29;1290.53;;;298.77;;
61204;SDS011;47068;55.780;37.520;2024-03-02T13:25:58;1295.05;;;276.63;;
61204;SDS011;47068;55.780;37.520;2024-03-02T13:28:24;1292.60;;;280.38;;
61204;SDS011;47068;55.780;37.520;2024-03-02T13:33:15;1277.00;;;272.23;;
61204;SDS011;47068;55.780;37.520;2024-03-02T13:35:41;1282.70;;;288.02;;
61204;SDS011;47068;55.780;37.520;2024-03-02T13:38:07;1280.88;;;288.75;;
61204;SDS011;47068;55.780;37.520;2024-03-02T13:40:33;1263.32;;;282.13;;
61204;SDS011;47068;55.780;37.520;2024-03-02T13:43:01;1262.60;;;276.27;;
61204;SDS011;47068;55.780;37.520;2024-03-02T13:45:28;1221.68;;;285.17;;
61204;SDS011;47068;55.780;37.520;2024-03-02T13:47:53;1283.30;;;282.83;;
61204;SDS011;47068;55.780;37.520;2024-03-02T13:50:19;1247.85;;;270.30;;
61204;SDS011;47068;55.780;37.520;2024-03-02T13:52:45;1247.43;;;282.17;;
61204;SDS011;47068;55.780;37.520;2024-03-02T13:55:10;1234.90;;;284.00;;
61204;SDS011;47068;55.780;37.520;2024-03-02T13:57:36;1232.60;;;272.17;;
61204;SDS011;47068;55.780;37.520;2024-03-02T14:00:01;1245.47;;;276.50;;
61204;SDS011;47068;55.780;37.520;2024-03-02T14:02:28;1199.57;;;278.30;;
61204;SDS011;47068;55.780;37.520;2024-03-02T14:04:54;1236.55;;;277.42;;
61204;SDS011;47068;55.780;37.520;2024-03-02T14:07:19;1248.55;;;280.35;;
61204;SDS011;47068;55.780;37.520;2024-03-02T14:09:45;1259.70;;;295.10;;
61204;SDS011;47068;55.780;37.520;2024-03-02T14:12:11;1257.35;;;278.83;;